Time;durP1;ratioP1;P1;durP2;ratioP2;P2;SDS_P1;SDS_P2;PMS_P1;PMS_P2;Temp;Humidity;BMP_temperature;BMP_pressure;BME280_temperature;BME280_humidity;BME280_pressure;Samples;Min_cycle;Max_cycle;Signal;HPM_P1;HPM_P2
2021/09/22 00:01:27;;;;;;;10.83;5.03;;;;;;;8.77;64.72;100971.39;126306;1099;104143;-82
2021/09/22 00:03:57;;;;;;;11.67;5.17;;;;;;;8.78;65.44;100970.55;126336;1099;104140;-81
2021/09/22 00:06:29;;;;;;;13.10;5.37;;;;;;;8.83;65.50;100970.77;126244;1099;105527;-82
2021/09/22 00:09:01;;;;;;;11.87;5.90;;;;;;;8.85;65.39;100968.23;126380;1099;104137;-82
2021/09/22 00:11:32;;;;;;;9.13;4.93;;;;;;;8.83;64.97;100965.54;126324;1099;104635;-82
2021/09/22 00:14:04;;;;;;;11.73;5.60;;;;;;;8.83;64.85;100964.66;126297;1099;104275;-82
2021/09/22 00:16:34;;;;;;;12.67;5.80;;;;;;;8.79;65.39;100966.23;126309;1099;104315;-82
2021/09/22 00:19:05;;;;;;;13.23;6.00;;;;;;;8.75;64.93;100965.16;126306;1099;104128;-81
2021/09/22 00:21:36;;;;;;;13.50;6.20;;;;;;;8.70;65.64;100963.15;126358;1099;104162;-82
2021/09/22 00:24:07;;;;;;;11.43;5.57;;;;;;;8.67;65.66;100965.61;126336;1099;104271;-81
2021/09/22 00:26:38;;;;;;;11.30;4.97;;;;;;;8.64;65.41;100961.99;126269;1099;105479;-80
2021/09/22 00:29:10;;;;;;;12.05;5.45;;;;;;;8.63;65.68;100967.15;126329;1099;104131;-81
2021/09/22 00:31:42;;;;;;;13.13;5.77;;;;;;;8.62;65.82;100966.27;126310;1099;104271;-81
2021/09/22 00:34:13;;;;;;;12.47;6.10;;;;;;;8.61;65.82;100969.69;126314;1099;104152;-82
2021/09/22 00:36:44;;;;;;;14.03;5.90;;;;;;;8.62;65.63;100965.38;126295;1099;104168;-82
2021/09/22 00:39:16;;;;;;;13.23;6.03;;;;;;;8.62;65.87;100974.11;126290;1099;104284;-80
2021/09/22 00:41:46;;;;;;;13.10;5.37;;;;;;;8.63;66.03;100956.69;126352;1099;104269;-80
2021/09/22 00:44:18;;;;;;;13.17;5.17;;;;;;;8.64;65.27;100951.53;126291;1099;104319;-81
2021/09/22 00:46:49;;;;;;;13.23;5.27;;;;;;;8.67;65.95;100947.30;126327;1099;105450;-81
2021/09/22 00:49:19;;;;;;;10.77;4.83;;;;;;;8.70;65.94;100950.06;126319;1099;104210;-83
2021/09/22 00:51:54;;;;;;;13.07;5.30;;;;;;;8.72;65.61;100951.03;126298;1099;104187;-81
2021/09/22 00:54:28;;;;;;;11.38;5.30;;;;;;;8.72;65.60;100940.56;126327;1099;104143;-81
2021/09/22 00:56:59;;;;;;;14.67;6.00;;;;;;;8.72;66.07;100937.95;126111;1099;104210;-82
2021/09/22 00:59:31;;;;;;;11.33;5.77;;;;;;;8.69;65.97;100927.33;126231;1099;104249;-82
2021/09/22 01:02:01;;;;;;;13.23;5.90;;;;;;;8.66;65.59;100928.06;125437;1099;104261;-82
2021/09/22 01:04:32;;;;;;;13.73;5.90;;;;;;;8.63;65.77;100927.91;126208;1099;104168;-81
2021/09/22 01:07:06;;;;;;;12.47;5.10;;;;;;;8.62;66.09;100915.67;125445;1099;104182;-81
2021/09/22 01:09:37;;;;;;;11.93;5.22;;;;;;;8.62;66.07;100918.28;126226;1099;104399;-81
2021/09/22 01:12:09;;;;;;;11.10;4.70;;;;;;;8.67;66.22;100913.28;126253;1099;104143;-82
2021/09/22 01:14:39;;;;;;;10.53;5.37;;;;;;;8.73;66.12;100910.97;126227;1098;104250;-82
2021/09/22 01:17:10;;;;;;;11.87;5.57;;;;;;;8.76;65.56;100909.40;126125;1099;104322;-81
2021/09/22 01:19:41;;;;;;;11.77;5.30;;;;;;;8.76;66.19;100914.63;126158;1099;104300;-81
2021/09/22 01:22:12;;;;;;;12.13;5.47;;;;;;;8.71;65.77;100908.28;126231;1099;104146;-80
2021/09/22 01:24:55;;;;;;;10.50;5.23;;;;;;;8.66;65.74;100909.75;126208;1099;104296;-80
2021/09/22 01:27:27;;;;;;;15.67;5.60;;;;;;;8.63;66.13;100909.59;125431;1099;104194;-79
2021/09/22 01:29:59;;;;;;;14.07;5.80;;;;;;;8.60;66.21;100910.36;126329;1099;104313;-81
2021/09/22 01:32:33;;;;;;;9.80;5.03;;;;;;;8.57;65.94;100909.28;126334;1099;104169;-80
2021/09/22 01:35:05;;;;;;;12.77;5.20;;;;;;;8.55;65.69;100906.59;126307;1099;104163;-81
2021/09/22 01:37:55;;;;;;;9.53;4.80;;;;;;;8.53;66.40;100915.20;126247;1099;104181;-81
2021/09/22 01:40:37;;;;;;;11.47;5.13;;;;;;;8.52;66.52;100914.28;126304;1099;104287;-80
2021/09/22 01:43:09;;;;;;;10.27;4.57;;;;;;;8.52;66.10;100901.20;126323;1099;104286;-81
2021/09/22 01:45:46;;;;;;;10.70;5.20;;;;;;;8.51;66.22;100919.44;126300;1099;104229;-82
2021/09/22 01:48:17;;;;;;;12.10;5.03;;;;;;;8.48;66.48;100904.51;126329;1097;104207;-81
2021/09/22 01:50:51;;;;;;;10.53;5.17;;;;;;;8.44;66.51;100906.05;126352;1099;104147;-82
2021/09/22 01:53:22;;;;;;;12.73;5.37;;;;;;;8.41;66.22;100899.74;126377;1099;104165;-82
2021/09/22 01:55:54;;;;;;;9.83;5.20;;;;;;;8.40;66.59;100900.59;126373;1099;104300;-81
2021/09/22 01:58:26;;;;;;;11.40;5.00;;;;;;;8.40;66.33;100908.43;126267;1099;104249;-81
2021/09/22 02:01:07;;;;;;;13.07;4.90;;;;;;;8.40;66.78;100904.08;126326;1099;104239;-81
2021/09/22 02:03:52;;;;;;;12.33;4.77;;;;;;;8.42;66.22;100906.78;126340;1099;104146;-81
2021/09/22 02:06:37;;;;;;;13.33;5.40;;;;;;;8.41;66.54;100903.28;126342;1099;104152;-82
2021/09/22 02:09:08;;;;;;;11.07;5.40;;;;;;;8.40;66.90;100906.70;126310;1099;104287;-81
2021/09/22 02:11:41;;;;;;;11.50;5.40;;;;;;;8.36;66.67;100904.73;126352;1099;104149;-82
2021/09/22 02:14:14;;;;;;;10.07;4.63;;;;;;;8.31;66.62;100902.73;126316;1099;104195;-80
2021/09/22 02:16:57;;;;;;;12.17;4.90;;;;;;;8.26;67.01;100892.92;126359;1099;104163;-81
2021/09/22 02:19:30;;;;;;;11.93;4.90;;;;;;;8.25;67.11;100903.30;126331;1099;104335;-81
2021/09/22 02:22:13;;;;;;;12.97;5.10;;;;;;;8.24;67.12;100904.11;126313;1099;104146;-82
2021/09/22 02:25:05;;;;;;;;;;;;;;;8.23;67.19;100904.95;126384;1099;104214;-81
2021/09/22 02:27:37;;;;;;;13.10;5.70;;;;;;;8.22;67.29;100905.75;126316;1099;104182;-82
2021/09/22 02:30:18;;;;;;;14.33;5.37;;;;;;;8.19;67.16;100908.20;126338;1099;104143;-81
2021/09/22 02:33:02;;;;;;;11.63;5.43;;;;;;;8.17;67.30;100909.86;126321;1099;104150;-81
2021/09/22 02:35:53;;;;;;;12.57;5.03;;;;;;;8.17;67.57;100910.74;126310;1099;103973;-82
2021/09/22 02:38:30;;;;;;;11.53;5.17;;;;;;;8.18;67.53;100901.17;126263;1099;104184;-81
2021/09/22 02:41:02;;;;;;;13.40;5.80;;;;;;;8.19;67.50;100906.48;126362;1099;104249;-81
2021/09/22 02:43:33;;;;;;;15.67;6.07;;;;;;;8.19;67.45;100908.20;126382;1099;104195;-81
2021/09/22 02:46:04;;;;;;;13.87;5.80;;;;;;;8.17;67.04;100905.52;126343;1099;104140;-82
2021/09/22 02:48:47;;;;;;;14.13;6.03;;;;;;;8.16;67.58;100898.48;126265;1097;104136;-81
2021/09/22 02:51:18;;;;;;;12.27;5.37;;;;;;;8.16;67.89;100900.20;126292;1098;104235;-81
2021/09/22 02:53:50;;;;;;;13.63;5.70;;;;;;;8.17;67.67;100908.13;126315;1099;104143;-81
2021/09/22 02:56:21;;;;;;;12.40;5.30;;;;;;;8.20;67.62;100902.17;126363;1099;104216;-81
2021/09/22 02:58:52;;;;;;;12.77;5.43;;;;;;;8.22;67.61;100904.03;126299;1099;104300;-81
2021/09/22 03:01:23;;;;;;;14.53;5.80;;;;;;;8.24;67.90;100896.27;126334;1099;104146;-82
2021/09/22 03:03:54;;;;;;;14.40;5.60;;;;;;;8.25;68.12;100885.88;126365;1099;104152;-82
2021/09/22 03:06:25;;;;;;;12.70;5.80;;;;;;;8.24;67.80;100888.42;126233;1099;104146;-81
2021/09/22 03:08:56;;;;;;;12.67;5.40;;;;;;;8.24;67.52;100893.65;125222;1099;104284;-80
2021/09/22 03:11:26;;;;;;;11.20;5.40;;;;;;;8.21;67.67;100890.87;125282;1099;104268;-81
2021/09/22 03:13:57;;;;;;;11.93;5.27;;;;;;;8.19;67.80;100885.56;125287;1099;104181;-81
2021/09/22 03:16:30;;;;;;;12.20;5.67;;;;;;;8.20;67.43;100899.56;125286;1099;104309;-81
2021/09/22 03:19:02;;;;;;;13.13;5.40;;;;;;;8.18;67.69;100891.64;125256;1099;105483;-81
2021/09/22 03:21:34;;;;;;;11.60;5.23;;;;;;;8.18;67.80;100888.10;125316;1099;104146;-81
2021/09/22 03:24:05;;;;;;;12.60;5.43;;;;;;;8.17;67.32;100889.83;125265;1099;104392;-82
2021/09/22 03:26:36;;;;;;;13.23;5.57;;;;;;;8.15;67.45;100888.86;125279;1099;104146;-81
2021/09/22 03:29:07;;;;;;;12.50;5.13;;;;;;;8.16;67.61;100887.14;125332;1099;104296;-81
2021/09/22 03:31:38;;;;;;;11.90;4.70;;;;;;;8.15;67.44;100888.86;125180;1099;111728;-81
2021/09/22 03:34:09;;;;;;;12.83;4.83;;;;;;;8.17;67.42;100887.22;125264;1099;104166;-82
2021/09/22 03:36:40;;;;;;;11.80;4.53;;;;;;;8.19;68.32;100885.56;125295;1099;104153;-81
2021/09/22 03:39:11;;;;;;;14.97;4.90;;;;;;;8.19;67.65;100884.68;125228;1099;104278;-81
2021/09/22 03:41:42;;;;;;;12.27;4.80;;;;;;;8.18;67.40;100883.80;126254;1099;104185;-82
2021/09/22 03:44:13;;;;;;;11.80;4.80;;;;;;;8.17;67.95;100874.14;126346;1099;104153;-81
2021/09/22 03:46:45;;;;;;;11.53;5.03;;;;;;;8.16;67.43;100876.68;126369;1097;104341;-82
2021/09/22 03:49:15;;;;;;;10.70;4.90;;;;;;;8.15;67.80;100870.56;126313;1099;104247;-80
2021/09/22 03:51:48;;;;;;;12.03;5.20;;;;;;;8.18;67.93;100872.42;126213;1099;104222;-80
2021/09/22 03:54:19;;;;;;;10.53;4.67;;;;;;;8.21;67.84;100876.11;126249;1099;104191;-81
2021/09/22 03:56:50;;;;;;;10.33;4.23;;;;;;;8.28;68.16;100872.97;126328;1099;104213;-83
2021/09/22 03:59:21;;;;;;;10.63;5.00;;;;;;;8.37;67.53;100882.13;126277;1099;104191;-82
2021/09/22 04:01:53;;;;;;;14.53;4.77;;;;;;;8.45;68.08;100883.43;126252;1099;104182;-81
2021/09/22 04:04:27;;;;;;;12.07;5.25;;;;;;;8.49;67.46;100877.52;126305;1099;104075;-81
2021/09/22 04:07:01;;;;;;;12.77;5.20;;;;;;;8.54;67.59;100873.44;126324;1099;104140;-82
2021/09/22 04:09:31;;;;;;;;;;;;;;;8.58;67.39;100862.28;126364;1097;104172;-82
2021/09/22 04:12:02;;;;;;;10.77;4.23;;;;;;;8.58;68.01;100864.01;126324;1096;104182;-82
2021/09/22 04:14:34;;;;;;;10.97;4.23;;;;;;;8.59;67.71;100857.97;126353;1099;104172;-81
2021/09/22 04:17:08;;;;;;;7.07;3.67;;;;;;;8.60;67.26;100858.05;126301;1097;104938;-82
2021/09/22 04:19:40;;;;;;;9.27;3.90;;;;;;;8.64;67.67;100856.47;126302;1098;104190;-81
2021/09/22 04:22:11;;;;;;;9.60;4.07;;;;;;;8.70;67.92;100863.73;126326;1099;104142;-82
2021/09/22 04:24:41;;;;;;;11.30;4.33;;;;;;;8.74;67.94;100861.34;126371;1099;104185;-82
2021/09/22 04:27:12;;;;;;;10.63;4.37;;;;;;;8.81;67.21;100852.94;126291;1099;104120;-81
2021/09/22 04:29:55;;;;;;;7.87;4.03;;;;;;;8.88;67.54;100853.23;126282;1099;104162;-78
2021/09/22 04:32:37;;;;;;;9.90;4.13;;;;;;;8.88;67.44;100846.31;126248;1099;104239;-78
2021/09/22 04:35:27;;;;;;;12.73;4.10;;;;;;;8.92;67.45;100855.20;126293;1099;104264;-80
2021/09/22 04:38:17;;;;;;;11.63;4.07;;;;;;;8.97;67.43;100859.80;126336;1099;104694;-79
2021/09/22 04:41:07;;;;;;;8.07;3.53;;;;;;;9.03;67.11;100858.33;126280;1099;104230;-79
2021/09/22 04:43:57;;;;;;;10.07;3.90;;;;;;;9.09;67.27;100853.38;126279;1099;104162;-80
2021/09/22 04:46:47;;;;;;;8.37;3.80;;;;;;;9.17;67.04;100860.75;126225;1099;104560;-78
2021/09/22 04:49:38;;;;;;;9.10;4.20;;;;;;;9.24;67.08;100848.87;126167;1099;104168;-78
2021/09/22 04:52:27;;;;;;;9.77;4.07;;;;;;;9.34;67.03;100844.94;126144;1099;104197;-78
2021/09/22 04:55:19;;;;;;;9.30;4.20;;;;;;;9.41;67.49;100848.73;126110;1099;104149;-77
2021/09/22 04:58:10;;;;;;;11.87;4.20;;;;;;;9.48;67.05;100853.44;126099;1099;104155;-78
2021/09/22 05:01:01;;;;;;;9.87;3.97;;;;;;;9.54;67.15;100844.13;126060;1099;104194;-78
2021/09/22 05:03:51;;;;;;;11.07;4.30;;;;;;;9.60;66.89;100843.52;126015;1099;112153;-79
2021/09/22 05:06:41;;;;;;;12.25;4.30;;;;;;;9.63;67.27;100843.66;126266;1099;104210;-77
2021/09/22 05:09:31;;;;;;;10.33;4.20;;;;;;;9.66;66.82;100837.63;126316;1099;104141;-78
2021/09/22 05:12:18;;;;;;;10.77;4.10;;;;;;;9.70;67.21;100839.58;126170;1098;105509;-78
2021/09/22 05:15:13;;;;;;;6.87;3.70;;;;;;;9.77;67.17;100840.73;126282;1099;104136;-78
2021/09/22 05:18:00;;;;;;;10.20;4.20;;;;;;;9.85;66.39;100836.75;126233;1099;104152;-79
2021/09/22 05:20:49;;;;;;;12.60;4.30;;;;;;;9.95;66.90;100832.80;126152;1097;104168;-79
2021/09/22 05:23:40;;;;;;;11.23;4.63;;;;;;;10.04;66.25;100823.59;126033;1099;104202;-77
2021/09/22 05:26:30;;;;;;;10.60;4.50;;;;;;;10.13;66.24;100830.97;126103;1099;104166;-78
2021/09/22 05:29:21;;;;;;;12.03;4.30;;;;;;;10.21;66.43;100829.56;126071;1099;104270;-78
2021/09/22 05:32:08;;;;;;;13.05;4.15;;;;;;;10.25;66.19;100825.33;126073;1098;104187;-78
2021/09/22 05:35:01;;;;;;;8.60;4.07;;;;;;;10.29;65.88;100823.75;126052;1098;104201;-79
2021/09/22 05:37:49;;;;;;;9.20;4.03;;;;;;;10.39;66.50;100821.61;125921;1098;104313;-78
2021/09/22 05:40:41;;;;;;;9.87;4.60;;;;;;;10.52;66.06;100819.50;126011;1099;104322;-78
2021/09/22 05:43:31;;;;;;;13.53;4.73;;;;;;;10.58;66.08;100825.88;126057;1099;104268;-79
2021/09/22 05:46:19;;;;;;;10.10;4.50;;;;;;;10.68;66.05;100821.02;126021;1099;104532;-79
2021/09/22 05:49:09;;;;;;;14.13;4.70;;;;;;;10.75;65.43;100820.41;126074;1099;104137;-79
2021/09/22 05:51:58;;;;;;;10.73;4.60;;;;;;;10.81;66.12;100820.65;126013;1099;104156;-80
2021/09/22 05:54:49;;;;;;;11.07;4.60;;;;;;;10.87;65.75;100812.13;126049;1099;104294;-80
2021/09/22 05:57:42;;;;;;;10.53;4.60;;;;;;;10.94;65.63;100812.44;126184;1099;104177;-81
2021/09/22 06:00:36;;;;;;;17.57;5.37;;;;;;;11.00;65.45;100824.00;125980;1099;104172;-79
2021/09/22 06:03:20;;;;;;;12.27;4.93;;;;;;;11.04;65.38;100823.30;125891;1099;104217;-80
2021/09/22 06:06:11;;;;;;;12.70;4.63;;;;;;;11.13;65.13;100823.66;125949;1099;104270;-79
2021/09/22 06:09:03;;;;;;;14.53;4.97;;;;;;;11.21;64.92;100827.47;126124;1099;104248;-78
2021/09/22 06:11:52;;;;;;;11.47;4.70;;;;;;;11.28;64.59;100818.99;126215;1099;104194;-80
2021/09/22 06:14:27;;;;;;;14.50;5.50;;;;;;;11.31;64.57;100820.81;125962;1099;104169;-80
2021/09/22 06:17:00;;;;;;;12.55;4.80;;;;;;;11.35;64.26;100816.59;125946;1099;104195;-79
2021/09/22 06:19:42;;;;;;;12.83;4.53;;;;;;;11.39;63.97;100807.97;126186;1099;104146;-79
2021/09/22 06:22:22;;;;;;;6.87;3.97;;;;;;;11.42;63.42;100813.34;126101;1099;104210;-78
2021/09/22 06:25:08;;;;;;;9.80;4.03;;;;;;;11.42;63.51;100809.00;126136;1099;104245;-79
2021/09/22 06:27:40;;;;;;;8.50;3.67;;;;;;;11.45;62.77;100817.00;126084;1098;104216;-79
2021/09/22 06:30:19;;;;;;;11.97;4.10;;;;;;;11.52;62.86;100815.48;125989;1099;104141;-79
2021/09/22 06:32:54;;;;;;;8.40;3.70;;;;;;;11.53;62.77;100809.40;126142;1099;104230;-80
2021/09/22 06:35:39;;;;;;;9.87;3.73;;;;;;;11.60;63.02;100811.39;126083;1099;105335;-78
2021/09/22 06:38:16;;;;;;;10.57;4.30;;;;;;;11.66;62.21;100810.73;126200;1099;104235;-78
2021/09/22 06:42:35;;;;;;;10.10;4.10;;;;;;;11.76;62.37;100811.95;125249;1102;104198;-79
2021/09/22 06:45:20;;;;;;;11.17;5.10;;;;;;;11.81;62.14;100816.55;125155;1102;104221;-82
2021/09/22 06:47:55;;;;;;;12.70;4.50;;;;;;;11.81;61.97;100820.89;124944;1103;104191;-79
2021/09/22 06:50:29;;;;;;;9.83;4.03;;;;;;;11.84;61.74;100821.00;125157;1102;104249;-78
2021/09/22 06:53:03;;;;;;;14.77;4.80;;;;;;;11.85;61.64;100810.53;125073;1102;104172;-79
2021/09/22 06:55:37;;;;;;;10.75;4.10;;;;;;;11.94;61.74;100820.53;125076;1105;104249;-79
2021/09/22 06:58:15;;;;;;;9.13;4.50;;;;;;;11.99;61.50;100812.80;124911;1102;104264;-78
2021/09/22 07:00:47;;;;;;;9.70;4.23;;;;;;;12.05;61.21;100818.28;125021;1102;104293;-78
2021/09/22 07:03:20;;;;;;;13.10;4.50;;;;;;;12.14;61.52;100818.59;124961;1102;103540;-80
2021/09/22 07:05:56;;;;;;;10.27;4.27;;;;;;;12.20;61.24;100820.52;125096;1102;104165;-78
2021/09/22 07:08:29;;;;;;;12.67;4.17;;;;;;;12.21;60.68;100817.94;125136;1102;104152;-79
2021/09/22 07:11:05;;;;;;;7.27;3.77;;;;;;;12.22;60.70;100816.23;125256;1102;104651;-80
2021/09/22 07:13:39;;;;;;;8.57;4.07;;;;;;;12.21;59.89;100817.06;126022;1098;104188;-79
2021/09/22 07:16:16;;;;;;;10.97;4.20;;;;;;;12.13;59.91;100816.80;126079;1099;104149;-78
2021/09/22 07:18:49;;;;;;;12.00;4.47;;;;;;;12.11;59.65;100812.34;126043;1099;104219;-78
2021/09/22 07:21:25;;;;;;;10.43;4.20;;;;;;;12.13;60.16;100808.91;125173;1099;104156;-78
2021/09/22 07:24:01;;;;;;;9.30;4.10;;;;;;;12.19;59.91;100811.75;125099;1099;104147;-80
2021/09/22 07:26:35;;;;;;;9.95;3.95;;;;;;;12.22;59.27;100810.97;125284;1099;104204;-78
2021/09/22 07:29:07;;;;;;;9.17;4.20;;;;;;;12.30;59.58;100813.86;125281;1102;104261;-80
2021/09/22 07:31:39;;;;;;;8.50;4.10;;;;;;;12.47;59.19;100828.47;125189;1100;104804;-79
2021/09/22 07:34:17;;;;;;;10.33;3.93;;;;;;;12.55;59.54;100820.83;125315;1099;104176;-79
2021/09/22 07:36:51;;;;;;;8.43;3.90;;;;;;;12.59;59.32;100813.08;126214;1099;104162;-80
2021/09/22 07:39:24;;;;;;;7.70;4.10;;;;;;;12.56;58.93;100807.71;126231;1099;104159;-81
2021/09/22 07:41:57;;;;;;;10.32;3.98;;;;;;;12.54;58.77;100805.86;125150;1099;104579;-80
2021/09/22 07:44:31;;;;;;;7.00;4.20;;;;;;;12.62;58.87;100804.39;125963;1099;104309;-79
2021/09/22 07:47:04;;;;;;;8.87;4.13;;;;;;;12.73;58.79;100815.24;125229;1099;104156;-78
2021/09/22 07:49:35;;;;;;;10.13;4.00;;;;;;;12.83;58.82;100811.18;125909;1099;104262;-77
2021/09/22 07:52:10;;;;;;;9.87;4.83;;;;;;;12.90;58.01;100808.79;125947;1099;104293;-77
2021/09/22 07:54:44;;;;;;;9.58;4.47;;;;;;;12.97;58.65;100801.96;125146;1099;104258;-79
2021/09/22 07:57:18;;;;;;;9.63;4.33;;;;;;;13.09;58.27;100794.44;125130;1099;104300;-77
2021/09/22 07:59:48;;;;;;;10.00;3.97;;;;;;;13.23;58.59;100786.03;126030;1099;104152;-78
2021/09/22 08:02:21;;;;;;;10.77;4.30;;;;;;;13.34;57.82;100787.29;126188;1099;104627;-77
2021/09/22 08:04:54;;;;;;;10.93;4.77;;;;;;;13.40;57.75;100787.47;126191;1099;104178;-79
2021/09/22 08:07:27;;;;;;;11.45;4.35;;;;;;;13.51;56.35;100795.69;126241;1099;104172;-79
2021/09/22 08:10:01;;;;;;;8.93;4.10;;;;;;;13.58;55.20;100783.56;125992;1099;104233;-78
2021/09/22 08:12:33;;;;;;;11.17;4.83;;;;;;;13.56;55.68;100785.27;126264;1099;104255;-79
2021/09/22 08:15:07;;;;;;;10.60;4.60;;;;;;;13.44;55.51;100767.35;126187;1099;104191;-78
2021/09/22 08:17:38;;;;;;;8.20;4.45;;;;;;;13.43;56.04;100773.46;126269;1099;104149;-77
2021/09/22 08:20:16;;;;;;;10.17;4.73;;;;;;;13.50;55.35;100775.44;126211;1099;104328;-78
2021/09/22 08:22:49;;;;;;;8.20;4.27;;;;;;;13.57;55.90;100769.50;126071;1099;104172;-78
2021/09/22 08:25:19;;;;;;;;;;;;;;;13.60;55.87;100763.39;126075;1099;104172;-79
2021/09/22 08:27:51;;;;;;;9.70;4.50;;;;;;;13.58;54.55;100763.35;126258;1099;104274;-79
2021/09/22 08:30:24;;;;;;;11.33;5.10;;;;;;;13.59;55.30;100757.23;126212;1099;104261;-80
2021/09/22 08:32:57;;;;;;;10.20;4.40;;;;;;;13.61;54.80;100755.53;125253;1099;104329;-79
2021/09/22 08:35:30;;;;;;;9.83;4.30;;;;;;;13.54;54.38;100761.50;125983;1099;105262;-78
2021/09/22 08:38:04;;;;;;;13.43;4.73;;;;;;;13.53;54.74;100749.16;126274;1099;104169;-78
2021/09/22 08:40:37;;;;;;;12.00;4.40;;;;;;;13.48;54.61;100741.13;126204;1099;104149;-80
2021/09/22 08:43:11;;;;;;;11.70;5.13;;;;;;;13.50;55.14;100732.37;126253;1099;104185;-78
2021/09/22 08:45:45;;;;;;;9.37;4.90;;;;;;;13.60;54.29;100740.58;126112;1099;104155;-79
2021/09/22 08:48:16;;;;;;;8.50;4.50;;;;;;;13.76;55.18;100728.69;126137;1099;104143;-78
2021/09/22 08:50:48;;;;;;;8.83;4.27;;;;;;;13.83;54.08;100719.18;126165;1099;104172;-78
2021/09/22 08:53:27;;;;;;;10.70;4.67;;;;;;;13.91;53.89;100735.20;126239;1098;104213;-79
2021/09/22 08:56:02;;;;;;;8.13;4.60;;;;;;;14.03;53.85;100712.66;126342;1099;104201;-78
2021/09/22 08:58:39;;;;;;;11.30;4.57;;;;;;;14.15;54.21;100713.84;126248;1099;104156;-79
2021/09/22 09:01:20;;;;;;;8.10;4.30;;;;;;;14.29;53.37;100728.26;126082;1099;104476;-77
2021/09/22 09:03:54;;;;;;;9.93;4.47;;;;;;;14.34;52.95;100715.17;126032;1099;104198;-79
2021/09/22 09:06:30;;;;;;;7.78;4.25;;;;;;;14.31;53.84;100712.45;126111;1099;108071;-79
2021/09/22 09:09:07;;;;;;;11.00;4.37;;;;;;;14.30;53.23;100713.30;126018;1099;104217;-79
2021/09/22 09:11:45;;;;;;;9.93;3.97;;;;;;;14.21;52.91;100716.62;126219;1099;104187;-79
2021/09/22 09:14:16;;;;;;;7.77;4.17;;;;;;;14.08;53.42;100712.77;125997;1099;104195;-79
2021/09/22 09:16:49;;;;;;;;;;;;;;;14.03;52.70;100707.38;126189;1099;104150;-79
2021/09/22 09:19:25;;;;;;;9.53;4.57;;;;;;;14.03;54.00;100704.74;126142;1099;104585;-78
2021/09/22 09:21:59;;;;;;;8.53;4.40;;;;;;;14.07;53.77;100700.45;126110;1099;104226;-78
2021/09/22 09:24:38;;;;;;;13.47;4.90;;;;;;;14.08;53.51;100696.94;125975;1099;104281;-79
2021/09/22 09:27:13;;;;;;;12.30;4.30;;;;;;;14.10;53.83;100689.06;126163;1099;104656;-78
2021/09/22 09:29:45;;;;;;;9.80;4.57;;;;;;;14.13;53.77;100689.14;126126;1099;104631;-79
2021/09/22 09:32:23;;;;;;;6.80;4.07;;;;;;;14.17;52.64;100697.16;126135;1099;104149;-79
2021/09/22 09:35:08;;;;;;;7.50;4.10;;;;;;;14.28;52.62;100683.34;125977;1099;104140;-78
2021/09/22 09:37:42;;;;;;;10.30;4.30;;;;;;;14.41;52.85;100679.23;125986;1099;104306;-78
2021/09/22 09:40:20;;;;;;;8.53;4.00;;;;;;;14.54;52.56;100673.39;125999;1099;104190;-77
2021/09/22 09:43:00;;;;;;;9.27;4.30;;;;;;;14.56;51.89;100677.83;125962;1099;104174;-78
2021/09/22 09:45:39;;;;;;;9.60;3.90;;;;;;;14.62;50.84;100678.88;125881;1099;104179;-77
2021/09/22 09:48:15;;;;;;;9.73;4.10;;;;;;;14.63;50.76;100665.70;126039;1099;104158;-79
2021/09/22 09:50:52;;;;;;;8.47;3.80;;;;;;;14.66;51.73;100671.05;126053;1098;104175;-79
2021/09/22 09:53:55;;;;;;;9.63;4.03;;;;;;;14.77;50.72;100668.61;126093;1099;104315;-78
2021/09/22 09:56:32;;;;;;;6.70;3.80;;;;;;;14.83;50.46;100667.86;125225;1099;104197;-79
2021/09/22 09:59:04;;;;;;;7.73;4.20;;;;;;;14.85;51.19;100653.84;126183;1099;104133;-79
2021/09/22 10:01:58;;;;;;;7.80;4.10;;;;;;;14.79;50.46;100656.35;126140;1099;104309;-78
2021/09/22 10:04:37;;;;;;;10.40;4.00;;;;;;;14.71;50.85;100666.75;126212;1099;104149;-80
2021/09/22 10:07:10;;;;;;;6.70;4.27;;;;;;;14.67;51.82;100662.25;125129;1099;104181;-80
2021/09/22 10:09:53;;;;;;;9.30;4.53;;;;;;;14.66;50.84;100655.20;125967;1099;104178;-78
2021/09/22 10:12:27;;;;;;;10.27;4.80;;;;;;;14.52;50.96;100638.12;125791;1099;104342;-78
2021/09/22 10:15:03;;;;;;;12.00;4.73;;;;;;;14.61;50.68;100650.67;126046;1099;104156;-78
2021/09/22 10:17:36;;;;;;;10.07;4.83;;;;;;;14.67;50.62;100646.41;126171;1099;104325;-78
2021/09/22 10:20:13;;;;;;;9.50;4.60;;;;;;;14.65;50.73;100648.13;125998;1099;104272;-77
2021/09/22 10:22:47;;;;;;;10.07;4.70;;;;;;;14.68;51.08;100648.20;126075;1098;104150;-79
2021/09/22 10:25:37;;;;;;;9.53;4.77;;;;;;;14.74;51.05;100632.48;126012;1099;104156;-78
2021/09/22 10:28:09;;;;;;;9.13;4.43;;;;;;;14.88;50.87;100638.05;126120;1099;104243;-77
2021/09/22 10:30:44;;;;;;;10.70;4.30;;;;;;;15.07;50.19;100634.02;125930;1099;104821;-78
2021/09/22 10:33:30;;;;;;;10.30;4.70;;;;;;;15.24;50.49;100639.63;126108;1099;104149;-78
2021/09/22 10:36:02;;;;;;;8.87;4.50;;;;;;;15.22;49.60;100635.16;125973;1099;104611;-79
2021/09/22 10:38:46;;;;;;;9.10;4.30;;;;;;;15.19;49.65;100638.66;126144;1099;104245;-79
2021/09/22 10:41:30;;;;;;;6.53;3.90;;;;;;;15.28;49.57;100630.87;125403;1099;104242;-79
2021/09/22 10:44:04;;;;;;;7.80;4.30;;;;;;;15.37;49.25;100623.99;126222;1099;104377;-80
2021/09/22 10:46:40;;;;;;;9.10;4.27;;;;;;;15.35;49.03;100639.83;125958;1098;104165;-79
2021/09/22 10:49:18;;;;;;;10.93;4.30;;;;;;;15.35;48.70;100625.70;125864;1099;104178;-80
2021/09/22 10:51:53;;;;;;;8.67;4.00;;;;;;;15.41;47.72;100628.45;125885;1099;104249;-78
2021/09/22 10:54:27;;;;;;;9.97;4.47;;;;;;;15.53;48.57;100625.14;126090;1098;104232;-79
2021/09/22 10:57:04;;;;;;;10.23;4.53;;;;;;;15.65;48.13;100625.36;126039;1099;104203;-79
2021/09/22 10:59:41;;;;;;;8.47;4.40;;;;;;;15.62;48.01;100620.02;126163;1099;104315;-80
2021/09/22 11:02:19;;;;;;;9.83;5.20;;;;;;;15.54;48.71;100619.00;126082;1099;104235;-80
2021/09/22 11:05:02;;;;;;;8.07;4.37;;;;;;;15.40;47.98;100640.80;126104;1099;104235;-81
2021/09/22 11:07:59;;;;;;;9.43;4.43;;;;;;;15.13;47.64;100649.11;126294;1099;104204;-80
2021/09/22 11:10:44;;;;;;;10.17;4.60;;;;;;;14.91;48.10;100637.20;126237;1099;104159;-80
2021/09/22 11:13:39;;;;;;;11.67;4.10;;;;;;;14.78;48.94;100637.83;126208;1099;104143;-79
2021/09/22 11:16:15;;;;;;;9.80;4.37;;;;;;;14.49;49.21;100645.97;126121;1097;104143;-78
2021/09/22 11:18:54;;;;;;;10.95;4.50;;;;;;;14.26;49.79;100643.72;126041;1099;104140;-80
2021/09/22 11:21:36;;;;;;;7.80;4.30;;;;;;;14.08;50.02;100652.09;126217;1099;104227;-82
2021/09/22 11:24:16;;;;;;;11.60;4.57;;;;;;;13.86;50.32;100653.32;126296;1098;104166;-80
2021/09/22 11:26:52;;;;;;;10.63;4.53;;;;;;;13.76;51.61;100651.29;126214;1099;104192;-80
2021/09/22 11:29:39;;;;;;;8.87;4.30;;;;;;;13.71;51.89;100659.09;126298;1099;104143;-81
2021/09/22 11:32:37;;;;;;;10.85;4.50;;;;;;;13.70;52.43;100651.14;126302;1099;104665;-79
2021/09/22 11:35:14;;;;;;;9.03;4.13;;;;;;;13.70;52.17;100651.14;126216;1099;104181;-79
2021/09/22 11:37:56;;;;;;;8.80;4.10;;;;;;;13.70;51.84;100645.86;126264;1099;104309;-79
2021/09/22 11:40:31;;;;;;;6.70;4.10;;;;;;;13.59;52.99;100643.86;126247;1099;104147;-78
2021/09/22 11:43:07;;;;;;;9.50;4.10;;;;;;;13.44;52.24;100636.44;126198;1099;104169;-79
2021/09/22 11:45:42;;;;;;;8.30;3.80;;;;;;;13.40;52.48;100639.87;126174;1099;104631;-78
2021/09/22 11:48:25;;;;;;;5.67;3.00;;;;;;;13.30;52.76;100625.49;126087;1099;104200;-80
2021/09/22 11:50:59;;;;;;;4.53;3.23;;;;;;;13.30;52.70;100632.52;125928;1099;104158;-79
2021/09/22 11:53:44;;;;;;;4.43;3.20;;;;;;;13.30;52.79;100627.25;125874;1099;104169;-80
2021/09/22 11:56:16;;;;;;;6.70;3.13;;;;;;;13.29;52.58;100636.91;126062;1099;104181;-80